Butterfield, Arkansas
Current Conditions -  °F | °C
As of 6:53 PM on Sunday 23 Nov 2014 (Local Time) from KHOT Reporting Station
Scattered Clouds Scattered Clouds  
Wind Chill: 64°   Ceiling: Unl
Heat Index: 64°   Visibility: 10mi
Dew Point: 58°   Wind: 8mph
Humidity: 80%   Direction: 230°SW
Pressure: 29.41"   Gusts: NA
Location:  34.3189°N, 92.8629°W
Report Text: KHOT 240053Z AUTO 23007KT 10SM SCT070 18/14 A2941 RMK AO2 SLP954 T01780144
Loading
Personal Weather Stations






























Interactive Weather Map New forecast layout! Learn more

10-Day Weather Forecast

Advertisements
Track Severe Weather on mobile